Time;durP1;ratioP1;P1;durP2;ratioP2;P2;SDS_P1;SDS_P2;PMS_P1;PMS_P2;Temp;Humidity;BMP_temperature;BMP_pressure;BME280_temperature;BME280_humidity;BME280_pressure;Samples;Min_cycle;Max_cycle;Signal;HPM_P1;HPM_P2
2023/05/17 00:00:33;;;;;;;4.22;0.95;;;11.70;69.30;;;;;;5035106;28;20032;-62
2023/05/17 00:02:58;;;;;;;2.53;1.00;;;11.60;69.20;;;;;;5034799;28;20044;-62
2023/05/17 00:05:24;;;;;;;4.72;0.93;;;11.70;69.30;;;;;;5027795;28;20040;-63
2023/05/17 00:07:50;;;;;;;2.05;0.80;;;11.70;69.40;;;;;;5029041;28;20051;-63
2023/05/17 00:10:16;;;;;;;2.72;0.68;;;11.60;69.20;;;;;;5028144;28;20162;-64
2023/05/17 00:12:41;;;;;;;4.85;0.80;;;11.60;69.20;;;;;;5030647;28;20166;-63
2023/05/17 00:15:07;;;;;;;3.40;1.02;;;11.60;69.30;;;;;;5029634;28;20113;-63
2023/05/17 00:17:33;;;;;;;3.83;0.82;;;11.60;69.30;;;;;;5027954;28;20143;-62
2023/05/17 00:19:58;;;;;;;3.03;0.90;;;11.60;69.50;;;;;;5030481;28;20041;-62
2023/05/17 00:22:24;;;;;;;2.03;0.75;;;11.60;69.60;;;;;;5030767;28;20128;-63
2023/05/17 00:24:50;;;;;;;3.08;0.73;;;11.60;69.50;;;;;;5032976;28;20048;-63
2023/05/17 00:27:15;;;;;;;4.47;1.00;;;11.60;69.10;;;;;;5033444;28;20033;-63
2023/05/17 00:29:41;;;;;;;4.13;0.90;;;11.60;68.80;;;;;;5030848;28;20037;-62
2023/05/17 00:32:06;;;;;;;4.32;0.85;;;11.50;68.60;;;;;;5034353;28;20090;-64
2023/05/17 00:34:32;;;;;;;2.13;1.00;;;11.50;68.70;;;;;;5030657;28;20045;-63
2023/05/17 00:36:57;;;;;;;4.65;0.80;;;11.50;68.80;;;;;;5033121;28;20074;-63
2023/05/17 00:39:23;;;;;;;1.70;0.80;;;11.40;69.20;;;;;;5032383;28;20099;-63
2023/05/17 00:41:48;;;;;;;5.10;0.98;;;11.60;69.50;;;;;;5034509;28;20227;-63
2023/05/17 00:44:14;;;;;;;1.70;0.70;;;11.40;69.50;;;;;;5029531;28;20099;-62
2023/05/17 00:46:40;;;;;;;4.15;0.90;;;11.40;69.40;;;;;;5030887;28;20044;-63
2023/05/17 00:49:06;;;;;;;2.88;0.90;;;11.40;69.80;;;;;;5032596;28;20045;-63
2023/05/17 00:51:33;;;;;;;1.90;1.00;;;11.40;70.00;;;;;;5033634;28;20025;-63
2023/05/17 00:53:59;;;;;;;3.53;0.93;;;11.40;70.10;;;;;;5032108;28;20192;-63
2023/05/17 00:56:25;;;;;;;3.78;1.20;;;11.40;70.20;;;;;;5035085;28;20548;-63
2023/05/17 00:58:51;;;;;;;3.53;0.88;;;11.40;69.80;;;;;;5035334;28;20033;-62
2023/05/17 01:01:17;;;;;;;2.95;0.75;;;11.40;69.20;;;;;;5037491;28;20056;-63
2023/05/17 01:03:43;;;;;;;4.10;0.80;;;11.40;69.10;;;;;;5031267;28;20489;-62
2023/05/17 01:06:09;;;;;;;3.90;0.85;;;11.30;68.80;;;;;;5030719;28;20037;-62
2023/05/17 01:08:35;;;;;;;3.40;0.77;;;11.20;69.20;;;;;;5028200;28;20044;-63
2023/05/17 01:11:38;;;;;;;4.38;0.93;;;11.20;69.60;;;;;;5031772;28;20041;-63
2023/05/17 01:14:19;;;;;;;1.98;0.70;;;11.20;69.20;;;;;;5031037;28;20132;-64
2023/05/17 01:16:55;;;;;;;3.05;0.80;;;11.20;68.80;;;;;;5029001;28;20022;-63
2023/05/17 01:19:48;;;;;;;6.88;0.98;;;11.20;69.70;;;;;;5030272;28;20545;-63
2023/05/17 01:22:31;;;;;;;3.67;0.70;;;11.20;69.20;;;;;;5030475;28;20064;-63
2023/05/17 01:25:33;;;;;;;2.72;0.90;;;11.10;69.40;;;;;;5034128;28;20105;-62
2023/05/17 01:28:02;;;;;;;2.40;0.70;;;11.10;68.80;;;;;;5034587;28;20083;-63
2023/05/17 01:30:30;;;;;;;4.45;0.90;;;11.10;69.10;;;;;;5031436;28;20037;-63
2023/05/17 01:32:57;;;;;;;4.22;1.10;;;11.00;69.00;;;;;;5031656;28;20036;-63
2023/05/17 01:35:24;;;;;;;2.67;0.88;;;11.00;68.40;;;;;;5036289;28;20124;-63
2023/05/17 01:37:51;;;;;;;5.03;1.17;;;10.90;69.00;;;;;;5033146;28;20037;-62
2023/05/17 01:40:18;;;;;;;4.00;0.82;;;10.90;69.20;;;;;;5034777;28;20125;-63
2023/05/17 01:42:45;;;;;;;5.45;0.80;;;10.90;69.30;;;;;;5035236;28;20484;-63
2023/05/17 01:45:16;;;;;;;3.13;0.90;;;10.80;69.30;;;;;;5036298;28;20120;-62
2023/05/17 01:47:57;;;;;;;2.80;0.88;;;10.80;69.30;;;;;;5033085;28;20041;-63
2023/05/17 01:50:25;;;;;;;2.63;0.90;;;10.80;69.00;;;;;;5035365;28;20045;-62
2023/05/17 01:53:06;;;;;;;4.80;0.98;;;10.80;69.10;;;;;;5034705;28;20049;-62
2023/05/17 01:55:51;;;;;;;3.20;1.00;;;10.80;68.70;;;;;;5036689;28;20046;-63
2023/05/17 01:58:20;;;;;;;2.42;0.88;;;10.70;68.50;;;;;;5036937;28;20040;-63
2023/05/17 02:00:48;;;;;;;2.30;0.80;;;10.70;69.20;;;;;;5035591;28;20179;-62
2023/05/17 02:03:18;;;;;;;4.38;0.98;;;10.70;69.50;;;;;;5036094;28;20030;-62
2023/05/17 02:05:44;;;;;;;5.53;1.10;;;10.70;69.80;;;;;;5032997;28;20431;-62
2023/05/17 02:08:10;;;;;;;7.82;0.88;;;10.60;69.70;;;;;;5030959;28;20053;-63
2023/05/17 02:10:35;;;;;;;2.33;0.80;;;10.60;69.30;;;;;;5038653;28;20132;-63
2023/05/17 02:13:01;;;;;;;3.17;0.85;;;10.60;69.20;;;;;;5033134;28;20320;-62
2023/05/17 02:15:26;;;;;;;1.98;0.80;;;10.60;69.40;;;;;;5031831;28;20569;-62
2023/05/17 02:17:52;;;;;;;3.33;0.75;;;10.60;69.70;;;;;;5031536;28;20038;-63
2023/05/17 02:20:18;;;;;;;3.47;0.85;;;10.50;69.50;;;;;;5033440;28;20053;-63
2023/05/17 02:22:43;;;;;;;5.18;1.05;;;10.50;69.50;;;;;;5028965;28;20568;-62
2023/05/17 02:25:09;;;;;;;3.83;0.93;;;10.50;69.90;;;;;;5035559;28;20401;-63
2023/05/17 02:27:35;;;;;;;3.03;0.90;;;10.50;70.10;;;;;;5035548;28;20037;-63
2023/05/17 02:30:02;;;;;;;2.80;0.95;;;10.50;70.20;;;;;;5036206;28;20528;-63
2023/05/17 02:32:28;;;;;;;3.88;0.88;;;10.50;70.00;;;;;;5032872;28;20049;-63
2023/05/17 02:34:54;;;;;;;5.57;0.90;;;10.50;69.90;;;;;;5032952;28;20048;-62
2023/05/17 02:37:20;;;;;;;2.42;0.90;;;10.50;69.60;;;;;;5035079;28;20483;-63
2023/05/17 02:39:45;;;;;;;4.05;1.00;;;10.50;69.60;;;;;;5035685;28;20091;-64
2023/05/17 02:42:11;;;;;;;4.20;1.00;;;10.50;69.70;;;;;;5034985;28;20037;-62
2023/05/17 02:44:37;;;;;;;3.92;0.95;;;10.40;69.80;;;;;;5031964;28;20124;-62
2023/05/17 02:47:02;;;;;;;4.10;0.90;;;10.50;69.90;;;;;;5034468;28;20041;-63
2023/05/17 02:49:28;;;;;;;3.75;0.70;;;10.50;70.10;;;;;;5032268;28;20041;-62
2023/05/17 02:51:54;;;;;;;3.10;1.02;;;10.40;70.00;;;;;;5035400;28;20091;-62
2023/05/17 02:54:19;;;;;;;4.70;0.75;;;10.50;69.90;;;;;;5035894;28;20111;-63
2023/05/17 02:56:45;;;;;;;2.92;0.68;;;10.40;69.90;;;;;;5036239;28;20036;-61
2023/05/17 02:59:10;;;;;;;2.92;0.88;;;10.40;69.80;;;;;;5032530;28;20116;-63
2023/05/17 03:01:36;;;;;;;2.22;1.00;;;10.40;69.80;;;;;;5032952;28;20052;-62
2023/05/17 03:04:01;;;;;;;3.42;0.70;;;10.30;69.50;;;;;;5031679;28;20056;-62
2023/05/17 03:06:27;;;;;;;3.80;0.90;;;10.30;69.50;;;;;;5028630;28;20037;-62
2023/05/17 03:08:52;;;;;;;2.83;0.80;;;10.30;69.70;;;;;;5030151;28;20980;-63
2023/05/17 03:11:18;;;;;;;4.00;0.77;;;10.30;69.80;;;;;;5031504;28;20037;-63
2023/05/17 03:13:45;;;;;;;4.30;0.65;;;10.30;69.30;;;;;;5034034;28;20041;-62
2023/05/17 03:16:11;;;;;;;5.60;0.98;;;10.20;69.60;;;;;;5031129;28;20116;-61
2023/05/17 03:18:36;;;;;;;3.70;1.00;;;10.20;69.80;;;;;;5030113;28;20405;-63
2023/05/17 03:21:02;;;;;;;5.90;0.90;;;10.20;70.00;;;;;;5031132;28;20029;-63
2023/05/17 03:23:28;;;;;;;6.32;1.00;;;10.20;70.40;;;;;;5033252;28;20044;-63
2023/05/17 03:25:53;;;;;;;2.45;0.98;;;10.10;70.30;;;;;;5031748;28;20037;-62
2023/05/17 03:28:19;;;;;;;2.25;0.80;;;10.20;70.00;;;;;;5030673;28;20068;-62
2023/05/17 03:30:45;;;;;;;3.20;0.82;;;10.10;70.00;;;;;;5030799;28;20037;-63
2023/05/17 03:33:11;;;;;;;3.50;0.80;;;10.10;70.40;;;;;;5034717;28;20040;-63
2023/05/17 03:35:36;;;;;;;2.63;1.00;;;10.10;70.60;;;;;;5031378;28;20071;-63
2023/05/17 03:38:02;;;;;;;4.32;0.80;;;10.10;70.60;;;;;;5033018;28;20140;-63
2023/05/17 03:40:27;;;;;;;4.75;0.80;;;10.20;70.70;;;;;;5026650;28;20041;-63
2023/05/17 03:42:53;;;;;;;4.32;0.90;;;10.20;71.00;;;;;;5031678;28;20134;-63
2023/05/17 03:45:18;;;;;;;1.52;0.65;;;10.20;70.70;;;;;;5034215;28;20103;-62
2023/05/17 03:47:44;;;;;;;3.83;0.70;;;10.20;70.70;;;;;;5032112;28;20037;-62
2023/05/17 03:50:10;;;;;;;1.73;0.70;;;10.20;70.70;;;;;;5029854;28;20025;-62
2023/05/17 03:52:35;;;;;;;3.28;0.80;;;10.20;70.60;;;;;;5028074;28;20099;-63
2023/05/17 03:55:01;;;;;;;2.92;0.85;;;10.20;70.30;;;;;;5045085;28;20286;-63
2023/05/17 03:57:26;;;;;;;4.93;0.90;;;10.20;70.20;;;;;;5032111;28;20152;-61
2023/05/17 03:59:52;;;;;;;2.40;0.90;;;10.20;70.30;;;;;;5029105;28;20383;-62
2023/05/17 04:02:18;;;;;;;1.83;0.73;;;10.10;70.20;;;;;;5030704;28;20064;-63
2023/05/17 04:04:51;;;;;;;2.08;0.70;;;10.20;70.40;;;;;;5030591;28;20033;-63
2023/05/17 04:07:17;;;;;;;4.45;0.90;;;10.10;70.30;;;;;;5030077;28;20048;-62
2023/05/17 04:09:43;;;;;;;2.05;0.82;;;10.10;70.20;;;;;;5031155;28;20041;-62
2023/05/17 04:12:09;;;;;;;5.57;0.98;;;10.10;69.80;;;;;;5033271;28;20021;-63
2023/05/17 04:14:38;;;;;;;4.70;1.15;;;10.10;69.90;;;;;;5030601;28;20497;-62
2023/05/17 04:17:04;;;;;;;2.45;1.10;;;10.10;69.60;;;;;;5034423;28;20032;-62
2023/05/17 04:19:30;;;;;;;2.95;0.70;;;10.10;69.90;;;;;;5030336;28;20029;-63
2023/05/17 04:21:55;;;;;;;2.20;0.80;;;10.00;70.20;;;;;;5031016;28;20060;-62
2023/05/17 04:24:21;;;;;;;3.53;0.90;;;10.00;70.20;;;;;;5030786;28;20045;-62
2023/05/17 04:26:47;;;;;;;2.60;0.70;;;10.00;70.40;;;;;;5029417;28;20617;-62
2023/05/17 04:29:12;;;;;;;3.10;0.70;;;10.00;70.40;;;;;;5030617;28;20087;-61
2023/05/17 04:31:38;;;;;;;4.22;0.98;;;10.00;70.10;;;;;;5030786;28;20052;-63
2023/05/17 04:34:03;;;;;;;1.92;0.70;;;10.00;70.20;;;;;;5035029;28;20055;-62
2023/05/17 04:36:29;;;;;;;9.55;1.10;;;10.00;70.40;;;;;;5034550;28;20086;-62
2023/05/17 04:38:55;;;;;;;2.38;0.82;;;10.00;70.20;;;;;;5034507;28;20033;-62
2023/05/17 04:41:20;;;;;;;1.90;0.80;;;10.00;69.90;;;;;;5036533;28;20549;-63
2023/05/17 04:43:46;;;;;;;5.90;1.00;;;10.00;69.90;;;;;;5036443;28;20476;-61
2023/05/17 04:46:12;;;;;;;2.17;0.90;;;10.00;70.00;;;;;;5034972;28;20511;-61
2023/05/17 04:48:37;;;;;;;2.55;1.23;;;10.00;69.90;;;;;;5033866;28;20508;-62
2023/05/17 04:51:04;;;;;;;5.15;0.90;;;10.00;70.20;;;;;;5036141;28;20094;-63
2023/05/17 04:53:30;;;;;;;4.28;0.90;;;10.00;69.90;;;;;;5036050;28;20119;-62
2023/05/17 04:55:56;;;;;;;2.60;0.90;;;9.90;70.00;;;;;;5035676;28;20504;-62
2023/05/17 04:58:25;;;;;;;5.18;0.95;;;9.90;70.50;;;;;;5036999;28;20492;-63
2023/05/17 05:00:51;;;;;;;2.63;1.00;;;9.90;70.50;;;;;;5038400;28;20519;-62
2023/05/17 05:03:17;;;;;;;2.70;1.00;;;9.90;70.60;;;;;;5038896;28;20041;-61
2023/05/17 05:05:43;;;;;;;2.63;1.08;;;9.90;70.60;;;;;;5037027;28;20317;-63
2023/05/17 05:08:08;;;;;;;4.00;1.08;;;9.90;70.90;;;;;;5039227;28;20367;-62
2023/05/17 05:10:34;;;;;;;4.15;1.10;;;9.80;71.00;;;;;;5036469;28;20048;-61
2023/05/17 05:12:59;;;;;;;1.33;0.90;;;9.90;71.00;;;;;;5040201;28;20037;-62
2023/05/17 05:15:25;;;;;;;3.47;1.10;;;9.90;71.20;;;;;;5039002;28;20435;-62
2023/05/17 05:17:51;;;;;;;2.25;0.90;;;9.90;71.00;;;;;;5037674;28;20041;-62
2023/05/17 05:20:16;;;;;;;4.55;1.10;;;9.90;71.10;;;;;;5037346;28;20041;-62
2023/05/17 05:22:42;;;;;;;4.20;0.98;;;9.90;71.40;;;;;;5035342;28;20099;-62
2023/05/17 05:25:08;;;;;;;7.55;1.92;;;9.90;71.50;;;;;;5039182;28;20408;-62
2023/05/17 05:27:37;;;;;;;5.13;1.52;;;9.90;71.40;;;;;;5037950;28;20044;-62
2023/05/17 05:30:03;;;;;;;3.10;1.20;;;9.90;72.30;;;;;;5038988;28;20036;-61
2023/05/17 05:32:28;;;;;;;3.55;1.38;;;10.00;71.40;;;;;;5035759;28;20307;-62
2023/05/17 05:34:54;;;;;;;4.35;1.33;;;9.90;71.10;;;;;;5037319;28;20122;-62
2023/05/17 05:37:19;;;;;;;2.63;1.23;;;10.00;71.40;;;;;;5037333;28;20045;-61
2023/05/17 05:39:45;;;;;;;3.75;1.60;;;10.00;71.60;;;;;;5039015;28;20041;-60
2023/05/17 05:42:11;;;;;;;5.57;1.25;;;9.90;71.60;;;;;;5038229;28;20040;-62
2023/05/17 05:44:37;;;;;;;4.32;1.23;;;10.00;71.80;;;;;;5038504;28;20181;-61
2023/05/17 05:47:03;;;;;;;5.43;1.65;;;10.00;71.60;;;;;;5037910;28;20284;-62
2023/05/17 05:49:28;;;;;;;5.40;1.23;;;10.00;71.60;;;;;;5038443;28;20065;-61
2023/05/17 05:51:54;;;;;;;5.18;1.27;;;10.10;71.80;;;;;;5039494;28;20392;-62
2023/05/17 05:54:19;;;;;;;5.18;1.30;;;10.10;71.80;;;;;;5039210;28;20132;-61
2023/05/17 05:56:45;;;;;;;2.50;1.23;;;10.20;71.80;;;;;;5038212;28;20400;-61
2023/05/17 05:59:10;;;;;;;5.32;1.40;;;10.20;71.80;;;;;;5039541;28;20311;-62
2023/05/17 06:01:36;;;;;;;4.57;1.23;;;10.30;71.60;;;;;;5038610;28;20167;-62
2023/05/17 06:04:02;;;;;;;4.30;1.48;;;10.30;72.40;;;;;;5038777;28;20028;-62
2023/05/17 06:06:28;;;;;;;4.20;1.50;;;10.30;71.30;;;;;;5038547;28;20042;-61
2023/05/17 06:08:54;;;;;;;2.28;1.30;;;10.40;71.40;;;;;;5037242;28;20036;-62
2023/05/17 06:11:20;;;;;;;3.35;1.42;;;10.40;71.30;;;;;;5036611;28;20036;-62
2023/05/17 06:13:46;;;;;;;3.53;1.40;;;10.40;70.60;;;;;;5036365;28;20056;-62
2023/05/17 06:16:12;;;;;;;5.35;1.50;;;10.40;71.10;;;;;;5037825;28;20108;-62
2023/05/17 06:18:37;;;;;;;4.13;1.50;;;10.50;71.20;;;;;;5036679;28;20627;-62
2023/05/17 06:21:03;;;;;;;5.00;1.45;;;10.50;71.00;;;;;;5037260;28;20128;-62
2023/05/17 06:23:29;;;;;;;3.53;1.38;;;10.60;71.20;;;;;;5038662;28;20044;-62
2023/05/17 06:25:54;;;;;;;4.30;1.45;;;10.60;71.10;;;;;;5038786;28;20216;-61
2023/05/17 06:28:20;;;;;;;5.13;1.60;;;10.60;71.00;;;;;;5038171;28;20037;-62
2023/05/17 06:30:45;;;;;;;5.18;1.50;;;10.70;70.90;;;;;;5037720;28;20025;-61
2023/05/17 06:33:11;;;;;;;6.00;1.67;;;10.70;70.80;;;;;;5037785;28;20281;-61
2023/05/17 06:35:37;;;;;;;4.53;1.52;;;10.70;71.00;;;;;;5038037;28;20037;-62
2023/05/17 06:38:02;;;;;;;6.00;1.70;;;10.80;71.10;;;;;;5038634;28;20041;-61
2023/05/17 06:40:28;;;;;;;5.90;1.55;;;10.80;70.70;;;;;;5035895;28;20034;-62
2023/05/17 06:42:54;;;;;;;4.82;1.33;;;10.90;70.20;;;;;;5037207;28;20451;-62
2023/05/17 06:45:20;;;;;;;5.35;1.48;;;10.90;69.70;;;;;;5037998;28;20037;-62
2023/05/17 06:47:46;;;;;;;4.15;1.80;;;10.90;69.70;;;;;;5037184;28;20102;-60
2023/05/17 06:50:11;;;;;;;3.63;1.23;;;10.90;70.00;;;;;;5036496;28;20037;-63
2023/05/17 06:52:37;;;;;;;5.18;1.38;;;10.90;70.20;;;;;;5035993;28;20033;-62
2023/05/17 06:55:03;;;;;;;3.20;1.40;;;10.90;70.20;;;;;;5037245;28;20233;-61
2023/05/17 06:57:28;;;;;;;4.03;1.38;;;11.00;69.80;;;;;;5036783;28;20402;-63
2023/05/17 06:59:54;;;;;;;5.03;1.40;;;11.00;70.10;;;;;;5037979;28;20041;-62
2023/05/17 07:02:20;;;;;;;3.97;1.45;;;11.10;70.30;;;;;;5035505;28;20035;-62
2023/05/17 07:04:45;;;;;;;4.13;1.33;;;11.10;70.30;;;;;;5034789;28;20033;-63
2023/05/17 07:07:11;;;;;;;3.13;1.30;;;11.10;70.10;;;;;;5037005;28;20045;-62
2023/05/17 07:09:37;;;;;;;6.53;1.85;;;11.10;70.10;;;;;;5037088;28;20033;-61
2023/05/17 07:12:04;;;;;;;6.18;1.42;;;11.20;69.90;;;;;;5034597;28;20025;-62
2023/05/17 07:14:30;;;;;;;4.88;1.75;;;11.20;69.90;;;;;;5037684;28;20065;-63
2023/05/17 07:16:56;;;;;;;2.85;1.30;;;11.30;69.70;;;;;;5037358;28;20049;-62
2023/05/17 07:19:21;;;;;;;7.72;1.50;;;11.30;69.70;;;;;;5036375;28;20241;-61
2023/05/17 07:21:47;;;;;;;4.13;1.27;;;11.30;69.30;;;;;;5033247;28;20128;-62
2023/05/17 07:24:13;;;;;;;6.63;1.50;;;11.40;69.10;;;;;;5034880;28;20132;-63
2023/05/17 07:26:38;;;;;;;4.53;1.35;;;11.40;69.20;;;;;;5036155;28;20117;-61
2023/05/17 07:29:04;;;;;;;3.30;1.60;;;11.40;69.20;;;;;;5037505;28;20412;-63
2023/05/17 07:31:30;;;;;;;5.30;1.63;;;11.50;69.20;;;;;;5036550;28;20055;-63
2023/05/17 07:33:56;;;;;;;6.10;1.30;;;11.50;69.90;;;;;;5035619;28;20404;-62
2023/05/17 07:36:21;;;;;;;4.65;1.50;;;11.50;69.20;;;;;;5034718;28;20099;-62
2023/05/17 07:38:47;;;;;;;3.70;1.15;;;11.60;69.30;;;;;;5035737;28;20051;-62
2023/05/17 07:41:15;;;;;;;4.25;1.17;;;11.60;69.30;;;;;;5035901;28;20056;-63
2023/05/17 07:43:41;;;;;;;2.30;1.20;;;11.60;68.60;;;;;;5035016;28;20040;-62
2023/05/17 07:46:07;;;;;;;5.38;1.30;;;11.70;68.30;;;;;;5036691;28;20033;-61
2023/05/17 07:48:32;;;;;;;3.97;1.50;;;11.70;68.80;;;;;;5035062;28;20040;-62
2023/05/17 07:50:58;;;;;;;5.07;1.33;;;11.70;69.00;;;;;;5035384;28;20057;-63
2023/05/17 07:53:24;;;;;;;3.92;1.40;;;11.80;69.00;;;;;;5036577;28;20497;-62
2023/05/17 07:55:50;;;;;;;3.75;1.27;;;11.90;68.70;;;;;;5036090;28;20084;-62
2023/05/17 07:58:15;;;;;;;3.85;1.10;;;11.90;68.00;;;;;;5036885;28;20120;-61
2023/05/17 08:00:41;;;;;;;3.35;1.20;;;12.00;68.00;;;;;;5035892;28;20030;-62
2023/05/17 08:03:07;;;;;;;6.35;1.15;;;12.00;68.10;;;;;;5032943;28;20230;-63
2023/05/17 08:05:33;;;;;;;3.78;1.25;;;12.10;68.10;;;;;;5037954;28;20041;-61
2023/05/17 08:07:59;;;;;;;6.07;1.20;;;12.20;68.10;;;;;;5035945;28;20516;-62
2023/05/17 08:10:25;;;;;;;4.47;1.52;;;12.30;66.80;;;;;;5037800;28;20080;-62
2023/05/17 08:12:52;;;;;;;2.67;1.08;;;12.30;66.90;;;;;;5035859;28;20396;-61
2023/05/17 08:15:18;;;;;;;5.25;1.10;;;12.30;66.70;;;;;;5036365;28;20051;-62
2023/05/17 08:17:43;;;;;;;4.45;1.30;;;12.30;66.60;;;;;;5036522;28;20041;-62
2023/05/17 08:20:09;;;;;;;4.78;1.30;;;12.30;66.40;;;;;;5035278;28;20516;-63
2023/05/17 08:22:35;;;;;;;3.97;1.30;;;12.30;65.90;;;;;;5034589;28;20037;-61
2023/05/17 08:25:01;;;;;;;4.57;1.10;;;12.30;66.20;;;;;;5035561;28;20516;-61
2023/05/17 08:27:29;;;;;;;4.25;1.30;;;12.40;66.50;;;;;;5035701;28;20046;-61
2023/05/17 08:29:56;;;;;;;3.45;1.10;;;12.40;67.50;;;;;;5036047;28;20164;-62
2023/05/17 08:32:22;;;;;;;5.78;1.30;;;12.50;66.20;;;;;;5035563;28;20053;-63
2023/05/17 08:34:48;;;;;;;5.93;1.73;;;12.60;66.30;;;;;;5034820;28;20041;-61
2023/05/17 08:37:14;;;;;;;4.47;1.30;;;12.60;66.40;;;;;;5036226;28;20052;-62
2023/05/17 08:39:39;;;;;;;6.40;1.50;;;12.70;66.40;;;;;;5037286;28;20047;-62
2023/05/17 08:42:08;;;;;;;4.28;1.13;;;12.70;63.80;;;;;;5037768;28;20531;-62
2023/05/17 08:44:35;;;;;;;5.88;1.20;;;12.80;64.90;;;;;;5031626;28;20092;-63
2023/05/17 08:47:02;;;;;;;2.95;1.20;;;12.90;65.70;;;;;;5032967;28;20032;-62
2023/05/17 08:49:32;;;;;;;4.95;1.23;;;12.90;65.80;;;;;;5033836;28;20135;-59
2023/05/17 08:52:00;;;;;;;2.53;0.98;;;13.00;65.90;;;;;;5035077;28;20030;-63
2023/05/17 08:54:26;;;;;;;4.88;1.30;;;13.10;65.60;;;;;;5034665;28;20044;-62
2023/05/17 08:56:57;;;;;;;4.18;1.52;;;13.10;65.50;;;;;;5033405;28;20029;-61
2023/05/17 08:59:24;;;;;;;4.80;1.30;;;13.30;64.80;;;;;;5015827;28;20070;-61
2023/05/17 09:01:53;;;;;;;4.32;1.02;;;13.30;64.80;;;;;;5016842;28;20037;-63
2023/05/17 09:04:19;;;;;;;3.60;1.10;;;13.40;64.30;;;;;;5015247;28;20030;-62
2023/05/17 09:06:45;;;;;;;3.10;1.13;;;13.50;64.00;;;;;;5014054;28;20074;-62
2023/05/17 09:09:11;;;;;;;4.07;1.42;;;13.70;63.60;;;;;;5016062;28;20384;-62
2023/05/17 09:11:37;;;;;;;3.60;1.10;;;13.70;63.40;;;;;;5014321;28;20048;-62
2023/05/17 09:14:05;;;;;;;3.25;1.20;;;13.70;60.80;;;;;;5017879;28;20034;-63
2023/05/17 09:16:35;;;;;;;3.30;1.45;;;13.70;62.30;;;;;;5017097;28;20037;-62
2023/05/17 09:19:02;;;;;;;2.83;0.98;;;13.70;61.50;;;;;;5016122;28;20039;-62
2023/05/17 09:21:31;;;;;;;3.33;0.85;;;13.70;61.60;;;;;;5015930;28;20121;-62
2023/05/17 09:24:00;;;;;;;3.40;1.30;;;13.70;61.70;;;;;;5016756;28;20034;-63
2023/05/17 09:26:42;;;;;;;2.67;1.10;;;13.70;61.70;;;;;;5016744;28;20501;-62
2023/05/17 09:29:15;;;;;;;5.50;1.17;;;13.70;60.40;;;;;;5031102;28;20084;-61
2023/05/17 09:31:42;;;;;;;5.10;1.23;;;13.80;60.80;;;;;;5015896;28;20046;-62
2023/05/17 09:34:08;;;;;;;3.15;1.02;;;13.90;60.80;;;;;;5016119;28;20446;-62
2023/05/17 09:36:40;;;;;;;3.20;1.08;;;13.90;60.10;;;;;;5015303;28;20061;-62
2023/05/17 09:39:10;;;;;;;2.92;1.30;;;14.00;60.00;;;;;;5015135;28;20497;-62
2023/05/17 09:41:47;;;;;;;2.28;1.10;;;14.00;59.40;;;;;;5016993;28;20112;-62
2023/05/17 09:44:13;;;;;;;3.17;1.10;;;14.00;59.10;;;;;;5016073;28;20048;-61
2023/05/17 09:46:44;;;;;;;3.05;1.00;;;14.00;59.60;;;;;;5019790;28;20260;-61
2023/05/17 09:49:11;;;;;;;3.65;0.95;;;13.90;59.40;;;;;;5018587;28;20041;-62
2023/05/17 09:51:42;;;;;;;2.67;0.90;;;14.00;60.30;;;;;;5019998;28;20041;-62
2023/05/17 09:54:09;;;;;;;1.67;1.02;;;14.00;60.00;;;;;;5019728;28;20037;-61
2023/05/17 09:56:35;;;;;;;4.47;1.15;;;14.10;60.00;;;;;;5019404;28;20045;-61
2023/05/17 09:59:01;;;;;;;2.95;1.08;;;14.20;58.00;;;;;;5021114;28;20396;-62
2023/05/17 10:01:29;;;;;;;3.00;1.30;;;14.30;59.30;;;;;;5019839;28;20033;-62
2023/05/17 10:03:59;;;;;;;3.67;1.30;;;14.30;59.90;;;;;;5019969;28;20030;-62
2023/05/17 10:06:27;;;;;;;2.92;1.17;;;14.40;58.70;;;;;;5019302;28;20033;-61
2023/05/17 10:08:55;;;;;;;2.80;1.13;;;14.50;59.50;;;;;;5020472;28;20088;-61
2023/05/17 10:11:26;;;;;;;2.45;1.10;;;14.50;58.70;;;;;;5021061;28;20397;-62
2023/05/17 10:14:04;;;;;;;5.13;1.30;;;14.60;57.80;;;;;;5019915;28;20120;-63
2023/05/17 10:16:33;;;;;;;3.55;1.40;;;14.50;57.20;;;;;;5018937;28;20037;-62
2023/05/17 10:19:00;;;;;;;4.25;1.15;;;14.50;58.00;;;;;;5018973;28;20045;-62
2023/05/17 10:21:27;;;;;;;2.47;1.17;;;14.50;58.20;;;;;;5017377;28;20064;-62
2023/05/17 10:23:54;;;;;;;3.45;1.20;;;14.50;58.50;;;;;;5019379;28;20084;-62
2023/05/17 10:26:21;;;;;;;4.55;1.40;;;14.60;58.80;;;;;;5019704;28;20108;-62
2023/05/17 10:28:50;;;;;;;3.13;1.60;;;14.60;58.30;;;;;;5018921;28;20358;-62
2023/05/17 10:31:16;;;;;;;4.13;1.40;;;14.70;58.40;;;;;;5019125;28;20387;-62
2023/05/17 10:33:45;;;;;;;3.15;1.23;;;14.70;58.50;;;;;;5016524;28;20033;-63
2023/05/17 10:36:16;;;;;;;5.63;1.70;;;14.80;57.90;;;;;;5019204;28;20421;-61
2023/05/17 10:38:41;;;;;;;3.67;1.30;;;14.90;58.10;;;;;;5017965;28;20042;-62
2023/05/17 10:41:09;;;;;;;2.85;1.00;;;14.90;58.10;;;;;;5017964;28;20040;-62
2023/05/17 10:43:36;;;;;;;2.55;1.20;;;15.00;58.20;;;;;;5018808;28;20340;-62
2023/05/17 10:46:03;;;;;;;4.85;1.55;;;15.00;57.50;;;;;;5019095;28;20409;-62
2023/05/17 10:48:30;;;;;;;2.58;1.20;;;15.00;57.60;;;;;;5018304;28;20040;-63
2023/05/17 10:50:55;;;;;;;5.25;1.33;;;15.10;58.00;;;;;;5016274;28;20038;-62
2023/05/17 10:53:21;;;;;;;4.75;1.60;;;15.20;57.90;;;;;;5018090;28;20049;-62
2023/05/17 10:55:47;;;;;;;3.40;1.35;;;15.20;56.70;;;;;;5015520;28;20749;-61
2023/05/17 10:58:16;;;;;;;3.55;1.58;;;15.30;56.90;;;;;;5018986;28;20041;-62
2023/05/17 11:00:46;;;;;;;4.57;1.70;;;15.30;55.90;;;;;;5016906;28;20042;-63
2023/05/17 11:03:20;;;;;;;2.20;1.65;;;15.20;54.00;;;;;;5019698;28;20075;-62
2023/05/17 11:06:20;;;;;;;1.92;1.10;;;15.10;55.20;;;;;;5018660;28;20574;-63
2023/05/17 11:09:06;;;;;;;2.67;1.10;;;15.00;54.10;;;;;;5019003;28;20041;-63
2023/05/17 11:11:33;;;;;;;3.28;1.17;;;14.90;56.20;;;;;;5019293;28;20037;-63
2023/05/17 11:14:03;;;;;;;3.45;1.48;;;14.90;57.10;;;;;;5020038;28;20064;-63
2023/05/17 11:16:35;;;;;;;4.05;1.52;;;14.90;57.00;;;;;;5018459;28;20038;-63
2023/05/17 11:19:08;;;;;;;3.63;1.52;;;15.00;56.60;;;;;;5017339;28;20034;-63
2023/05/17 11:21:34;;;;;;;4.43;1.55;;;15.10;55.40;;;;;;5019964;28;20033;-62
2023/05/17 11:24:05;;;;;;;2.83;1.52;;;15.20;56.10;;;;;;5019115;28;20550;-63
2023/05/17 11:26:36;;;;;;;2.10;1.33;;;15.20;56.00;;;;;;5018968;28;20052;-63
2023/05/17 11:29:06;;;;;;;4.57;1.92;;;15.20;54.70;;;;;;5018253;28;20053;-63
2023/05/17 11:31:36;;;;;;;4.50;1.48;;;15.20;55.30;;;;;;5019668;28;20072;-61
2023/05/17 11:34:03;;;;;;;3.53;1.48;;;15.20;56.10;;;;;;5017432;28;20026;-61
2023/05/17 11:36:29;;;;;;;2.33;1.40;;;15.30;56.50;;;;;;5018571;28;20120;-63
2023/05/17 11:39:10;;;;;;;2.85;1.20;;;15.40;56.40;;;;;;5018558;28;20107;-63
2023/05/17 11:41:40;;;;;;;2.83;1.63;;;15.50;55.10;;;;;;5017125;28;20033;-62
2023/05/17 11:44:06;;;;;;;3.20;1.45;;;15.50;56.00;;;;;;5018607;28;20501;-61
2023/05/17 11:46:32;;;;;;;3.65;1.90;;;15.50;55.20;;;;;;5016283;28;20548;-63
2023/05/17 11:48:59;;;;;;;2.33;1.60;;;15.60;55.60;;;;;;5019195;28;20486;-62
2023/05/17 11:51:25;;;;;;;4.43;1.70;;;15.60;55.50;;;;;;5016203;28;20452;-63
2023/05/17 11:53:54;;;;;;;4.18;1.65;;;15.60;55.30;;;;;;5018412;28;20041;-62
2023/05/17 11:56:21;;;;;;;2.55;1.58;;;15.70;55.30;;;;;;5016647;28;20041;-62
2023/05/17 11:58:51;;;;;;;3.42;1.92;;;15.70;55.10;;;;;;5016898;28;20092;-62
2023/05/17 12:01:17;;;;;;;4.90;2.10;;;15.80;55.10;;;;;;5017051;28;20505;-62
2023/05/17 12:03:42;;;;;;;2.63;1.80;;;15.80;55.60;;;;;;5016855;28;20199;-61
2023/05/17 12:06:14;;;;;;;3.50;2.03;;;15.90;55.30;;;;;;5016664;28;20112;-62
2023/05/17 12:08:44;;;;;;;2.78;1.52;;;16.00;53.70;;;;;;5015102;28;20056;-61
2023/05/17 12:11:13;;;;;;;3.10;1.50;;;16.00;54.20;;;;;;5020800;28;20084;-62
2023/05/17 12:13:40;;;;;;;3.58;1.63;;;16.10;54.80;;;;;;5016262;28;20034;-61
2023/05/17 12:16:15;;;;;;;4.03;1.90;;;16.10;54.80;;;;;;5016571;28;20044;-61
2023/05/17 12:18:43;;;;;;;4.45;1.77;;;16.20;54.30;;;;;;5015687;28;20044;-62
2023/05/17 12:21:13;;;;;;;3.20;2.00;;;16.30;54.50;;;;;;5015308;28;20091;-61
2023/05/17 12:23:45;;;;;;;2.42;1.60;;;16.40;54.30;;;;;;5015884;28;20038;-62
2023/05/17 12:26:14;;;;;;;3.25;1.70;;;16.40;53.20;;;;;;5029892;28;20034;-62
2023/05/17 12:28:45;;;;;;;5.43;2.45;;;16.50;54.00;;;;;;5034698;28;20044;-62
2023/05/17 12:31:17;;;;;;;4.13;2.20;;;16.50;53.80;;;;;;5036980;28;20033;-62
2023/05/17 12:33:43;;;;;;;3.92;2.30;;;16.50;53.40;;;;;;5034876;28;20130;-62
2023/05/17 12:36:11;;;;;;;4.30;2.03;;;16.50;53.20;;;;;;5036354;28;20041;-62
2023/05/17 12:38:39;;;;;;;3.53;2.22;;;16.50;53.80;;;;;;5033975;28;20034;-62
2023/05/17 12:41:07;;;;;;;3.17;2.30;;;16.50;53.50;;;;;;5036665;28;20072;-62
2023/05/17 12:43:34;;;;;;;4.22;2.33;;;16.40;52.70;;;;;;5034938;28;20088;-62
2023/05/17 12:46:06;;;;;;;4.47;2.22;;;16.40;52.30;;;;;;5036065;28;20048;-62
2023/05/17 12:48:36;;;;;;;4.28;2.40;;;16.30;52.00;;;;;;5036367;28;20033;-62